createdAt,value
2017-11-23T00:01:57.327Z,99620.76
2017-11-23T00:04:24.712Z,99629.72
2017-11-23T00:06:52.136Z,99624.41
2017-11-23T00:09:19.592Z,99617.50
2017-11-23T00:11:47.048Z,99617.88
2017-11-23T00:14:14.428Z,99618.30
2017-11-23T00:16:41.812Z,99616.17
2017-11-23T00:19:09.225Z,99617.86
2017-11-23T00:21:36.667Z,99607.83
2017-11-23T00:24:04.056Z,99610.02
2017-11-23T00:26:31.447Z,99608.39
2017-11-23T00:28:58.833Z,99602.13
2017-11-23T00:31:26.292Z,99607.53
2017-11-23T00:33:53.673Z,99599.81
2017-11-23T00:36:21.099Z,99598.03
2017-11-23T00:38:48.556Z,99601.08
2017-11-23T00:41:15.941Z,99600.55
2017-11-23T00:43:43.320Z,99591.09
2017-11-23T00:46:10.698Z,99590.57
2017-11-23T00:48:38.088Z,99594.12
2017-11-23T00:51:05.472Z,99594.76
2017-11-23T00:53:32.863Z,99598.59
2017-11-23T00:56:00.356Z,99600.23
2017-11-23T00:58:27.740Z,99601.97
2017-11-23T01:00:55.119Z,99600.81
2017-11-23T01:03:22.508Z,99599.70
2017-11-23T01:05:49.919Z,99599.55
2017-11-23T01:08:17.303Z,99594.87
2017-11-23T01:10:44.675Z,99592.67
2017-11-23T01:13:12.129Z,99602.75
2017-11-23T01:15:39.585Z,99599.07
2017-11-23T01:18:06.974Z,99599.07
2017-11-23T01:20:34.353Z,99598.97
2017-11-23T01:23:01.746Z,99606.92
2017-11-23T01:25:29.137Z,99603.19
2017-11-23T01:27:56.526Z,99595.93
2017-11-23T01:30:24.019Z,99601.18
2017-11-23T01:32:51.474Z,99595.70
2017-11-23T01:35:18.847Z,99592.67
2017-11-23T01:37:46.223Z,99587.14
2017-11-23T01:40:13.604Z,99573.64
2017-11-23T01:42:40.991Z,99579.38
2017-11-23T01:45:08.447Z,99584.48
2017-11-23T01:47:35.903Z,99581.67
2017-11-23T01:50:03.361Z,99586.11
2017-11-23T01:52:30.743Z,99588.02
2017-11-23T01:54:58.174Z,99588.56
2017-11-23T01:57:25.631Z,99587.39
2017-11-23T01:59:53.020Z,99582.03
2017-11-23T02:02:20.399Z,99576.92
2017-11-23T02:04:47.786Z,99582.52
2017-11-23T02:07:15.168Z,99575.52
2017-11-23T02:09:42.556Z,99568.27
2017-11-23T02:12:09.923Z,99562.42
2017-11-23T02:14:37.312Z,99569.64
2017-11-23T02:17:04.692Z,99562.94
2017-11-23T02:19:32.068Z,99573.63
2017-11-23T02:21:59.443Z,99579.56
2017-11-23T02:24:26.827Z,99567.89
2017-11-23T02:26:54.208Z,99556.16
2017-11-23T02:29:21.592Z,99551.84
2017-11-23T02:31:48.959Z,99550.69
2017-11-23T02:34:16.414Z,99553.34
2017-11-23T02:36:43.797Z,99545.23
2017-11-23T02:39:11.210Z,99541.23
2017-11-23T02:41:38.657Z,99531.81
2017-11-23T02:44:06.060Z,99529.01
2017-11-23T02:46:33.490Z,99533.44
2017-11-23T02:49:00.940Z,99529.61
2017-11-23T02:51:28.389Z,99537.30
2017-11-23T02:53:55.834Z,99533.39
2017-11-23T02:56:23.221Z,99523.50
2017-11-23T02:58:50.598Z,99523.13
2017-11-23T03:01:17.989Z,99521.79
2017-11-23T03:03:45.372Z,99522.95
2017-11-23T03:06:12.759Z,99511.31
2017-11-23T03:08:40.159Z,99513.95
2017-11-23T03:11:07.549Z,99504.41
2017-11-23T03:13:34.980Z,99500.42
2017-11-23T03:16:02.438Z,99511.11
2017-11-23T03:18:29.895Z,99510.09
2017-11-23T03:20:57.349Z,99516.25
2017-11-23T03:23:24.723Z,99512.56
2017-11-23T03:25:52.162Z,99515.86
2017-11-23T03:28:19.536Z,99512.20
2017-11-23T03:30:46.940Z,99507.42
2017-11-23T03:33:14.327Z,99507.39
2017-11-23T03:35:41.777Z,99494.02
2017-11-23T03:38:09.236Z,99489.19
2017-11-23T03:40:36.692Z,99488.73
2017-11-23T03:43:04.068Z,99487.58
2017-11-23T03:45:31.452Z,99481.29
2017-11-23T03:47:58.840Z,99480.29
2017-11-23T03:50:26.217Z,99480.05
2017-11-23T03:52:53.594Z,99478.70
2017-11-23T03:55:20.971Z,99473.98
2017-11-23T03:57:48.361Z,99464.81
2017-11-23T04:00:15.743Z,99463.59
2017-11-23T04:02:43.184Z,99457.63
2017-11-23T04:05:10.555Z,99458.05
2017-11-23T04:07:37.964Z,99457.11
2017-11-23T04:10:05.447Z,99449.73
2017-11-23T04:12:32.847Z,99450.77
2017-11-23T04:15:00.227Z,99448.30
2017-11-23T04:17:27.621Z,99443.57
2017-11-23T04:19:55.080Z,99446.45
2017-11-23T04:22:22.468Z,99450.05
2017-11-23T04:24:49.856Z,99451.33
2017-11-23T04:27:17.239Z,99442.39
2017-11-23T04:29:44.692Z,99444.64
2017-11-23T04:32:12.067Z,99452.50
2017-11-23T04:34:39.503Z,99445.61
2017-11-23T04:37:06.886Z,99444.43
2017-11-23T04:39:34.287Z,99444.22
2017-11-23T04:42:01.659Z,99435.98
2017-11-23T04:44:29.050Z,99436.83
2017-11-23T04:46:56.471Z,99445.44
2017-11-23T04:49:23.871Z,99443.43
2017-11-23T04:51:51.287Z,99438.42
2017-11-23T04:54:18.671Z,99442.61
2017-11-23T04:56:46.100Z,99447.20
2017-11-23T04:59:13.558Z,99444.84
2017-11-23T05:01:40.935Z,99442.67
2017-11-23T05:04:08.360Z,99442.77
2017-11-23T05:06:35.743Z,99442.13
2017-11-23T05:09:03.140Z,99447.20
2017-11-23T05:11:30.523Z,99448.84
2017-11-23T05:13:57.983Z,99444.15
2017-11-23T05:16:25.371Z,99447.31
2017-11-23T05:18:52.747Z,99436.10
2017-11-23T05:21:20.147Z,99434.44
2017-11-23T05:23:47.604Z,99430.41
2017-11-23T05:26:14.992Z,99430.59
2017-11-23T05:28:42.416Z,99430.77
2017-11-23T05:31:09.805Z,99437.06
2017-11-23T05:33:37.188Z,99440.05
2017-11-23T05:36:04.570Z,99438.34
2017-11-23T05:38:31.951Z,99435.54
2017-11-23T05:40:59.344Z,99434.78
2017-11-23T05:43:26.724Z,99424.23
2017-11-23T05:45:54.116Z,99428.68
2017-11-23T05:48:21.507Z,99426.81
2017-11-23T05:50:48.887Z,99415.23
2017-11-23T05:53:16.364Z,99412.01
2017-11-23T05:55:43.747Z,99414.89
2017-11-23T05:58:11.131Z,99416.73
2017-11-23T06:00:38.533Z,99422.72
2017-11-23T06:03:05.992Z,99426.64
2017-11-23T06:05:33.420Z,99416.86
2017-11-23T06:08:00.897Z,99414.05
2017-11-23T06:10:28.272Z,99397.22
2017-11-23T06:12:55.709Z,99409.79
2017-11-23T06:15:23.084Z,99417.77
2017-11-23T06:17:50.471Z,99418.84
2017-11-23T06:20:17.857Z,99419.80
2017-11-23T06:22:45.246Z,99418.31
2017-11-23T06:25:12.621Z,99423.59
2017-11-23T06:27:40.019Z,99419.52
2017-11-23T06:30:07.406Z,99425.70
2017-11-23T06:32:34.851Z,99435.09
2017-11-23T06:35:02.323Z,99424.50
2017-11-23T06:37:29.691Z,99420.06
2017-11-23T06:39:57.080Z,99423.58
2017-11-23T06:42:24.567Z,99416.98
2017-11-23T06:44:51.943Z,99425.27
2017-11-23T06:47:19.327Z,99430.37
2017-11-23T06:49:46.735Z,99418.06
2017-11-23T06:52:14.123Z,99432.70
2017-11-23T06:54:41.547Z,99417.42
2017-11-23T06:57:08.968Z,99417.72
2017-11-23T06:59:36.459Z,99410.81
2017-11-23T07:02:03.916Z,99417.16
2017-11-23T07:04:31.292Z,99416.33
2017-11-23T07:06:58.671Z,99424.06
2017-11-23T07:09:26.068Z,99420.53
2017-11-23T07:11:53.466Z,99414.81
2017-11-23T07:14:20.840Z,99411.67
2017-11-23T07:16:48.249Z,99403.94
2017-11-23T07:19:15.640Z,99422.25
2017-11-23T07:21:43.028Z,99411.67
2017-11-23T07:24:10.434Z,99418.98
2017-11-23T07:26:37.803Z,99419.59
2017-11-23T07:29:05.227Z,99409.76
2017-11-23T07:31:32.607Z,99406.63
2017-11-23T07:34:00.041Z,99408.36
2017-11-23T07:36:27.517Z,99407.34
2017-11-23T07:38:54.934Z,99397.36
2017-11-23T07:41:22.316Z,99403.66
2017-11-23T07:43:49.708Z,99413.16
2017-11-23T07:46:17.108Z,99405.70
2017-11-23T07:48:44.507Z,99396.63
2017-11-23T07:51:11.920Z,99388.11
2017-11-23T07:53:39.373Z,99373.23
2017-11-23T07:56:06.756Z,99384.83
2017-11-23T07:58:34.135Z,99397.31
2017-11-23T08:01:01.519Z,99401.59
2017-11-23T08:03:28.934Z,99390.61
2017-11-23T08:05:56.343Z,99390.89
2017-11-23T08:08:24.383Z,99396.97
2017-11-23T08:10:51.764Z,99405.35
2017-11-23T08:13:19.176Z,99379.84
2017-11-23T08:15:46.565Z,99382.14
2017-11-23T08:18:13.939Z,99372.07
2017-11-23T08:20:41.412Z,99372.03
2017-11-23T08:23:08.797Z,99364.70
2017-11-23T08:25:36.208Z,99375.28
2017-11-23T08:28:03.608Z,99382.11
2017-11-23T08:30:30.997Z,99388.75
2017-11-23T08:32:58.481Z,99396.86
2017-11-23T08:35:25.880Z,99398.59
2017-11-23T08:37:53.307Z,99393.73
2017-11-23T08:40:20.725Z,99388.05
2017-11-23T08:42:48.210Z,99371.54
2017-11-23T08:45:15.585Z,99369.12
2017-11-23T08:47:43.012Z,99377.42
2017-11-23T08:50:10.404Z,99377.27
2017-11-23T08:52:37.792Z,99365.91
2017-11-23T08:55:05.183Z,99361.36
2017-11-23T08:57:32.564Z,99370.98
2017-11-23T08:59:59.955Z,99365.03
2017-11-23T09:02:27.445Z,99381.84
2017-11-23T09:04:54.895Z,99381.05
2017-11-23T09:07:22.273Z,99368.48
2017-11-23T09:09:49.656Z,99375.53
2017-11-23T09:12:17.097Z,99366.19
2017-11-23T09:14:44.520Z,99368.36
2017-11-23T09:17:11.986Z,99374.41
2017-11-23T09:19:39.379Z,99361.81
2017-11-23T09:22:06.795Z,99367.64
2017-11-23T09:24:34.189Z,99370.03
2017-11-23T09:27:01.618Z,99362.69
2017-11-23T09:29:28.995Z,99366.58
2017-11-23T09:31:56.412Z,99371.43
2017-11-23T09:34:23.864Z,99366.52
2017-11-23T09:36:51.248Z,99352.62
2017-11-23T09:39:18.661Z,99356.59
2017-11-23T09:41:46.030Z,99365.84
2017-11-23T09:44:13.421Z,99363.73
2017-11-23T09:46:40.840Z,99361.73
2017-11-23T09:49:08.228Z,99366.55
2017-11-23T09:51:35.615Z,99367.40
2017-11-23T09:54:03.123Z,99363.13
2017-11-23T09:56:30.500Z,99360.64
2017-11-23T09:58:57.883Z,99358.45
2017-11-23T10:01:25.272Z,99352.14
2017-11-23T10:03:52.662Z,99363.34
2017-11-23T10:06:20.053Z,99343.80
2017-11-23T10:08:47.446Z,99337.47
2017-11-23T10:11:14.825Z,99340.96
2017-11-23T10:13:42.250Z,99339.06
2017-11-23T10:16:09.645Z,99335.00
2017-11-23T10:18:37.060Z,99345.30
2017-11-23T10:21:04.443Z,99343.42
2017-11-23T10:23:31.867Z,99344.55
2017-11-23T10:25:59.260Z,99339.99
2017-11-23T10:28:26.650Z,99341.54
2017-11-23T10:30:54.039Z,99327.55
2017-11-23T10:33:21.494Z,99329.92
2017-11-23T10:35:48.884Z,99320.45
2017-11-23T10:38:16.304Z,99314.42
2017-11-23T10:40:43.687Z,99316.35
2017-11-23T10:43:11.067Z,99325.66
2017-11-23T10:45:38.455Z,99321.03
2017-11-23T10:48:05.847Z,99317.12
2017-11-23T10:50:33.240Z,99315.27
2017-11-23T10:53:00.631Z,99315.08
2017-11-23T10:55:28.012Z,99321.63
2017-11-23T10:57:55.399Z,99323.06
2017-11-23T11:00:22.904Z,99328.34
2017-11-23T11:02:50.292Z,99320.30
2017-11-23T11:05:17.678Z,99302.95
2017-11-23T11:07:45.068Z,99319.81
2017-11-23T11:10:12.547Z,99316.88
2017-11-23T11:12:39.950Z,99315.72
2017-11-23T11:15:07.345Z,99335.01
2017-11-23T11:17:34.737Z,99323.03
2017-11-23T11:20:02.120Z,99326.73
2017-11-23T11:22:29.603Z,99323.12
2017-11-23T11:24:56.989Z,99322.97
2017-11-23T11:27:24.375Z,99327.50
2017-11-23T11:29:51.764Z,99336.02
2017-11-23T11:32:19.228Z,99332.06
2017-11-23T11:34:46.679Z,99339.75
2017-11-23T11:37:14.073Z,99338.03
2017-11-23T11:39:41.459Z,99353.59
2017-11-23T11:42:08.851Z,99345.16
2017-11-23T11:44:36.239Z,99339.13
2017-11-23T11:47:03.632Z,99347.91
2017-11-23T11:49:31.084Z,99338.57
2017-11-23T11:51:58.468Z,99341.86
2017-11-23T11:54:25.932Z,99339.16
2017-11-23T11:56:53.379Z,99339.90
2017-11-23T11:59:20.769Z,99345.03
2017-11-23T12:01:48.162Z,99346.56
2017-11-23T12:04:15.540Z,99351.95
2017-11-23T12:06:42.937Z,99361.55
2017-11-23T12:09:10.360Z,99361.00
2017-11-23T12:11:37.817Z,99355.36
2017-11-23T12:14:17.060Z,99353.80
2017-11-23T12:20:01.320Z,99373.75
2017-11-23T12:25:52.376Z,99387.31
2017-11-23T12:28:31.783Z,99390.98
2017-11-23T12:30:59.164Z,99406.47
2017-11-23T12:33:26.558Z,99416.70
2017-11-23T12:35:53.936Z,99415.05
2017-11-23T12:38:21.331Z,99427.50
2017-11-23T12:40:48.729Z,99422.88
2017-11-23T12:43:16.106Z,99431.19
2017-11-23T12:45:43.492Z,99422.43
2017-11-23T12:48:10.929Z,99428.70
2017-11-23T12:50:38.320Z,99440.16
2017-11-23T12:53:05.739Z,99440.70
2017-11-23T12:55:33.195Z,99432.30
2017-11-23T12:58:00.664Z,99435.48
2017-11-23T13:00:28.052Z,99442.53
2017-11-23T13:02:55.439Z,99448.24
2017-11-23T13:05:22.824Z,99456.62
2017-11-23T13:07:50.283Z,99459.31
2017-11-23T13:10:17.671Z,99470.14
2017-11-23T13:12:45.052Z,99473.55
2017-11-23T13:15:12.467Z,99481.45
2017-11-23T13:17:39.924Z,99486.72
2017-11-23T13:20:07.355Z,99478.69
2017-11-23T13:22:34.737Z,99487.05
2017-11-23T13:25:02.128Z,99482.09
2017-11-23T13:27:29.507Z,99495.09
2017-11-23T13:29:56.892Z,99493.45
2017-11-23T13:32:24.280Z,99491.39
2017-11-23T13:34:51.693Z,99497.13
2017-11-23T13:37:19.080Z,99483.30
2017-11-23T13:39:46.471Z,99490.55
2017-11-23T13:42:13.851Z,99491.79
2017-11-23T13:44:41.251Z,99503.02
2017-11-23T13:47:08.634Z,99483.99
2017-11-23T13:49:36.015Z,99479.45
2017-11-23T13:52:03.409Z,99490.45
2017-11-23T13:54:30.803Z,99478.52
2017-11-23T13:56:58.180Z,99480.23
2017-11-23T13:59:25.571Z,99479.30
2017-11-23T14:01:52.950Z,99490.54
2017-11-23T14:04:20.340Z,99478.31
2017-11-23T14:06:47.812Z,99483.79
2017-11-23T14:09:15.206Z,99491.07
2017-11-23T14:11:42.590Z,99479.91
2017-11-23T14:14:09.977Z,99487.06
2017-11-23T14:16:37.380Z,99494.75
2017-11-23T14:19:04.788Z,99491.07
2017-11-23T14:21:32.248Z,99492.20
2017-11-23T14:23:59.699Z,99489.66
2017-11-23T14:26:27.091Z,99496.99
2017-11-23T14:28:54.482Z,99501.34
2017-11-23T14:31:21.887Z,99503.38
2017-11-23T14:33:49.256Z,99492.95
2017-11-23T14:36:16.670Z,99504.36
2017-11-23T14:38:44.127Z,99491.80
2017-11-23T14:41:11.584Z,99502.48
2017-11-23T14:43:38.970Z,99493.94
2017-11-23T14:46:06.343Z,99511.45
2017-11-23T14:48:33.728Z,99513.30
2017-11-23T14:51:01.143Z,99517.55
2017-11-23T14:53:28.541Z,99518.09
2017-11-23T14:55:55.923Z,99511.31
2017-11-23T14:58:23.311Z,99525.49
2017-11-23T15:00:50.688Z,99520.39
2017-11-23T15:03:18.122Z,99525.72
2017-11-23T15:05:45.572Z,99521.59
2017-11-23T15:08:12.953Z,99526.47
2017-11-23T15:10:40.339Z,99529.12
2017-11-23T15:13:07.723Z,99528.65
2017-11-23T15:15:35.119Z,99542.67
2017-11-23T15:18:02.547Z,99546.13
2017-11-23T15:20:29.927Z,99541.58
2017-11-23T15:22:57.315Z,99541.39
2017-11-23T15:25:24.700Z,99547.88
2017-11-23T15:27:52.092Z,99551.61
2017-11-23T15:30:19.481Z,99556.31
2017-11-23T15:32:46.874Z,99558.03
2017-11-23T15:35:14.345Z,99557.09
2017-11-23T15:37:41.736Z,99543.88
2017-11-23T15:40:09.154Z,99542.00
2017-11-23T15:42:36.607Z,99561.11
2017-11-23T15:45:04.068Z,99563.77
2017-11-23T15:47:31.455Z,99570.42
2017-11-23T15:49:58.848Z,99570.42
2017-11-23T15:52:26.336Z,99578.59
2017-11-23T15:54:53.724Z,99559.83
2017-11-23T15:57:21.117Z,99574.72
2017-11-23T15:59:48.600Z,99571.42
2017-11-23T16:02:16.065Z,99570.66
2017-11-23T16:04:43.447Z,99578.80
2017-11-23T16:07:10.848Z,99577.14
2017-11-23T16:09:38.224Z,99575.28
2017-11-23T16:12:05.686Z,99587.94
2017-11-23T16:14:33.158Z,99576.50
2017-11-23T16:17:00.544Z,99585.85
2017-11-23T16:19:27.923Z,99588.23
2017-11-23T16:21:55.328Z,99599.52
2017-11-23T16:24:22.700Z,99590.94
2017-11-23T16:26:50.117Z,99600.11
2017-11-23T16:29:17.503Z,99602.41
2017-11-23T16:31:44.882Z,99613.70
2017-11-23T16:34:12.285Z,99614.80
2017-11-23T16:36:43.654Z,99622.55
2017-11-23T16:39:13.569Z,99639.09
2017-11-23T16:41:46.692Z,99644.32
2017-11-23T16:44:19.591Z,99656.54
2017-11-23T16:46:52.690Z,99680.79
2017-11-23T16:49:25.569Z,99696.61
2017-11-23T16:51:58.441Z,99700.58
2017-11-23T16:54:31.568Z,99696.03
2017-11-23T16:57:04.657Z,99699.17
2017-11-23T16:59:32.807Z,99725.31
2017-11-23T17:02:05.820Z,99751.34
2017-11-23T17:04:40.596Z,99748.77
2017-11-23T17:07:07.983Z,99739.39
2017-11-23T17:09:35.376Z,99749.63
2017-11-23T17:12:08.392Z,99763.25
2017-11-23T17:14:41.300Z,99754.27
2017-11-23T17:17:25.448Z,99743.73
2017-11-23T17:19:52.950Z,99746.66
2017-11-23T17:22:20.393Z,99751.09
2017-11-23T17:24:47.849Z,99755.94
2017-11-23T17:27:15.227Z,99759.95
2017-11-23T17:29:42.770Z,99773.06
2017-11-23T17:32:10.142Z,99784.28
2017-11-23T17:34:37.540Z,99793.70
2017-11-23T17:37:04.926Z,99799.47
2017-11-23T17:39:32.383Z,99804.22
2017-11-23T17:41:59.768Z,99813.54
2017-11-23T17:44:27.170Z,99812.87
2017-11-23T17:46:54.647Z,99808.45
2017-11-23T17:49:22.051Z,99817.06
2017-11-23T17:51:49.525Z,99820.83
2017-11-23T17:54:16.911Z,99818.39
2017-11-23T17:56:44.304Z,99819.50
2017-11-23T17:59:11.723Z,99813.47
2017-11-23T18:01:39.126Z,99817.13
2017-11-23T18:04:06.512Z,99825.37
2017-11-23T18:06:33.995Z,99833.65
2017-11-23T18:09:01.379Z,99839.66
2017-11-23T18:11:28.782Z,99839.55
2017-11-23T18:13:56.160Z,99844.10
2017-11-23T18:16:23.550Z,99836.22
2017-11-23T18:18:50.971Z,99842.63
2017-11-23T18:21:18.356Z,99846.53
2017-11-23T18:23:45.745Z,99853.00
2017-11-23T18:26:13.137Z,99875.52
2017-11-23T18:28:40.521Z,99888.52
2017-11-23T18:31:07.948Z,99886.80
2017-11-23T18:33:35.335Z,99895.42
2017-11-23T18:36:02.761Z,99902.63
2017-11-23T18:38:30.156Z,99913.02
2017-11-23T18:40:57.560Z,99911.23
2017-11-23T18:43:24.944Z,99912.02
2017-11-23T18:45:52.331Z,99920.31
2017-11-23T18:48:19.741Z,99927.38
2017-11-23T18:50:47.159Z,99926.97
2017-11-23T18:53:14.547Z,99927.11
2017-11-23T18:55:42.000Z,99930.36
2017-11-23T18:58:09.462Z,99943.39
2017-11-23T19:00:36.852Z,99943.35
2017-11-23T19:03:04.243Z,99935.95
2017-11-23T19:05:31.620Z,99931.98
2017-11-23T19:07:59.080Z,99938.67
2017-11-23T19:10:26.466Z,99938.75
2017-11-23T19:12:53.864Z,99950.09
2017-11-23T19:15:21.242Z,99950.91
2017-11-23T19:17:48.632Z,99970.84
2017-11-23T19:20:16.064Z,99977.13
2017-11-23T19:22:43.452Z,99990.62
2017-11-23T19:25:10.835Z,99996.33
2017-11-23T19:27:38.228Z,100004.36
2017-11-23T19:30:05.622Z,99999.19
2017-11-23T19:32:33.063Z,100006.66
2017-11-23T19:35:00.497Z,100003.99
2017-11-23T19:37:27.903Z,100004.86
2017-11-23T19:39:55.283Z,99998.38
2017-11-23T19:42:22.675Z,100002.92
2017-11-23T19:44:50.104Z,100013.98
2017-11-23T19:47:17.522Z,100013.33
2017-11-23T19:49:44.915Z,100014.17
2017-11-23T19:52:12.307Z,100024.30
2017-11-23T19:54:39.699Z,100041.48
2017-11-23T19:57:07.190Z,100059.25
2017-11-23T19:59:34.686Z,100063.63
2017-11-23T20:02:02.083Z,100058.77
2017-11-23T20:04:29.552Z,100067.24
2017-11-23T20:06:56.941Z,100060.70
2017-11-23T20:09:24.329Z,100065.05
2017-11-23T20:11:51.735Z,100065.88
2017-11-23T20:14:19.120Z,100061.77
2017-11-23T20:16:46.499Z,100069.73
2017-11-23T20:19:13.918Z,100068.95
2017-11-23T20:21:41.291Z,100069.47
2017-11-23T20:24:08.699Z,100074.33
2017-11-23T20:26:36.128Z,100082.34
2017-11-23T20:29:03.572Z,100090.98
2017-11-23T20:31:30.959Z,100093.14
2017-11-23T20:33:58.344Z,100100.48
2017-11-23T20:36:25.744Z,100099.09
2017-11-23T20:38:53.131Z,100106.81
2017-11-23T20:41:20.563Z,100106.96
2017-11-23T20:43:48.037Z,100108.41
2017-11-23T20:46:15.407Z,100105.68
2017-11-23T20:48:42.796Z,100117.55
2017-11-23T20:51:10.183Z,100115.06
2017-11-23T20:53:37.568Z,100117.82
2017-11-23T20:56:04.984Z,100117.04
2017-11-23T20:58:32.448Z,100117.52
2017-11-23T21:00:59.936Z,100127.83
2017-11-23T21:03:27.352Z,100124.92
2017-11-23T21:05:54.731Z,100129.03
2017-11-23T21:08:22.124Z,100131.64
2017-11-23T21:10:49.547Z,100136.07
2017-11-23T21:13:17.024Z,100132.98
2017-11-23T21:15:44.408Z,100130.72
2017-11-23T21:18:11.806Z,100139.70
2017-11-23T21:20:39.206Z,100142.60
2017-11-23T21:23:06.592Z,100151.86
2017-11-23T21:25:34.004Z,100155.36
2017-11-23T21:28:01.380Z,100160.81
2017-11-23T21:30:28.812Z,100166.30
2017-11-23T21:32:56.191Z,100175.60
2017-11-23T21:35:23.616Z,100178.03
2017-11-23T21:37:51.007Z,100181.03
2017-11-23T21:40:18.430Z,100185.53
2017-11-23T21:42:45.820Z,100183.66
2017-11-23T21:45:13.207Z,100175.53
2017-11-23T21:47:40.596Z,100181.56
2017-11-23T21:50:07.989Z,100184.92
2017-11-23T21:52:35.404Z,100185.17
2017-11-23T21:55:02.792Z,100179.90
2017-11-23T21:57:30.212Z,100179.16
2017-11-23T21:59:57.616Z,100182.53
2017-11-23T22:02:25.015Z,100180.97
2017-11-23T22:04:52.482Z,100183.16
2017-11-23T22:07:19.942Z,100190.80
2017-11-23T22:09:47.319Z,100196.05
2017-11-23T22:12:14.697Z,100198.76
2017-11-23T22:14:42.104Z,100190.74
2017-11-23T22:17:09.493Z,100202.29
2017-11-23T22:19:36.923Z,100205.50
2017-11-23T22:22:04.306Z,100208.78
2017-11-23T22:24:31.693Z,100203.20
2017-11-23T22:26:59.180Z,100200.52
2017-11-23T22:29:26.564Z,100208.34
2017-11-23T22:31:53.969Z,100206.87
2017-11-23T22:34:21.348Z,100214.94
2017-11-23T22:36:48.808Z,100210.83
2017-11-23T22:39:16.264Z,100206.38
2017-11-23T22:41:43.734Z,100208.56
2017-11-23T22:44:11.114Z,100205.48
2017-11-23T22:46:38.549Z,100209.59
2017-11-23T22:49:05.978Z,100209.80
2017-11-23T22:51:33.368Z,100210.09
2017-11-23T22:54:00.757Z,100210.83
2017-11-23T22:56:28.159Z,100201.27
2017-11-23T22:58:55.540Z,100204.33
2017-11-23T23:01:22.944Z,100198.61
2017-11-23T23:03:50.333Z,100202.08
2017-11-23T23:06:17.732Z,100206.31
2017-11-23T23:08:45.124Z,100206.63
2017-11-23T23:11:12.525Z,100213.97
2017-11-23T23:13:39.915Z,100204.54
2017-11-23T23:16:07.304Z,100199.12
2017-11-23T23:18:34.691Z,100189.77
2017-11-23T23:21:02.099Z,100186.69
2017-11-23T23:23:29.483Z,100187.46
2017-11-23T23:25:56.913Z,100193.16
2017-11-23T23:28:24.296Z,100191.21
2017-11-23T23:30:51.679Z,100192.60
2017-11-23T23:33:19.075Z,100194.34
2017-11-23T23:35:46.528Z,100190.45
2017-11-23T23:38:13.920Z,100194.48
2017-11-23T23:40:41.339Z,100189.42
2017-11-23T23:43:08.723Z,100198.09
2017-11-23T23:45:36.153Z,100192.19
2017-11-23T23:48:03.544Z,100189.89
2017-11-23T23:50:30.944Z,100195.80
2017-11-23T23:52:58.348Z,100192.38
2017-11-23T23:55:25.731Z,100199.45
2017-11-23T23:57:53.128Z,100199.75
